Thomas Bridge, Virginia
Current Conditions -  °F | °C
As of 11:35 PM on Saturday 20 Dec 2014 (Local Time) from KMKJ Reporting Station
Drizzle Drizzle  
Wind Chill: 37°   Ceiling: 700
Heat Index: 37°   Visibility: 7mi
Dew Point: 35°   Wind: 0mph
Humidity: 93%   Direction: NA
Pressure: 30.21"   Gusts: NA
Location:  36.8339°N, 81.5195°W
Report Text: KMKJ 210435Z AUTO 00000KT 7SM -DZ OVC007 03/02 A3021 RMK AO2 T00260016
Loading
Personal Weather Stations






























Interactive Weather Map New forecast layout! Learn more

10-Day Weather Forecast

Advertisements
Track Severe Weather on mobile